createdAt,value
2023-05-20T00:01:52.979Z,5.93
2023-05-20T00:06:54.928Z,6.13
2023-05-20T00:11:56.630Z,5.90
2023-05-20T00:16:58.457Z,6.10
2023-05-20T00:22:00.293Z,6.03
2023-05-20T00:27:02.729Z,6.00
2023-05-20T00:32:04.767Z,6.25
2023-05-20T00:37:06.601Z,5.85
2023-05-20T00:42:08.298Z,6.35
2023-05-20T00:47:10.027Z,6.57
2023-05-20T00:52:12.595Z,6.63
2023-05-20T00:57:15.343Z,6.68
2023-05-20T01:02:17.183Z,6.40
2023-05-20T01:07:19.956Z,6.30
2023-05-20T01:12:29.601Z,6.65
2023-05-20T01:17:33.220Z,6.18
2023-05-20T01:22:37.928Z,6.65
2023-05-20T01:27:39.775Z,6.43
2023-05-20T01:33:01.676Z,6.63
2023-05-20T01:38:06.054Z,6.78
2023-05-20T01:43:08.244Z,6.50
2023-05-20T01:48:11.708Z,6.50
2023-05-20T01:53:13.636Z,7.07
2023-05-20T01:58:15.605Z,7.10
2023-05-20T02:03:17.388Z,6.93
2023-05-20T02:08:19.166Z,8.05
2023-05-20T02:13:21.098Z,7.13
2023-05-20T02:18:23.399Z,8.13
2023-05-20T02:23:25.092Z,8.13
2023-05-20T02:28:27.013Z,8.13
2023-05-20T02:33:29.079Z,8.20
2023-05-20T02:38:32.322Z,9.15
2023-05-20T02:43:34.256Z,8.90
2023-05-20T02:48:36.099Z,10.10
2023-05-20T02:53:37.813Z,10.90
2023-05-20T02:58:39.807Z,11.05
2023-05-20T03:03:42.082Z,10.88
2023-05-20T03:08:43.808Z,11.27
2023-05-20T03:13:45.535Z,11.95
2023-05-20T03:18:47.327Z,11.13
2023-05-20T03:23:49.124Z,11.93
2023-05-20T03:28:50.899Z,11.75
2023-05-20T03:33:52.643Z,12.13
2023-05-20T03:38:54.557Z,11.35
2023-05-20T03:43:56.425Z,11.00
2023-05-20T03:48:58.222Z,10.57
2023-05-20T03:53:59.947Z,9.95
2023-05-20T03:59:02.045Z,10.02
2023-05-20T04:04:03.977Z,10.25
2023-05-20T04:09:06.030Z,10.38
2023-05-20T04:14:10.490Z,10.60
2023-05-20T04:19:12.843Z,9.90
2023-05-20T04:24:14.636Z,10.73
2023-05-20T04:29:16.473Z,10.82
2023-05-20T04:34:20.085Z,11.23
2023-05-20T04:39:22.753Z,11.70
2023-05-20T04:44:24.719Z,11.13
2023-05-20T04:49:26.747Z,11.38
2023-05-20T04:54:28.503Z,11.45
2023-05-20T04:59:30.264Z,11.15
2023-05-20T05:04:32.028Z,11.07
2023-05-20T05:09:34.888Z,10.55
2023-05-20T05:14:36.709Z,11.05
2023-05-20T05:19:38.450Z,10.60
2023-05-20T05:24:40.173Z,10.60
2023-05-20T05:29:41.902Z,10.60
2023-05-20T05:34:43.618Z,11.65
2023-05-20T05:39:45.367Z,11.77
2023-05-20T05:44:48.537Z,11.90
2023-05-20T05:49:50.233Z,12.02
2023-05-20T05:54:51.992Z,12.35
2023-05-20T05:59:53.767Z,11.30
2023-05-20T06:04:55.670Z,11.30
2023-05-20T06:09:57.556Z,11.18
2023-05-20T06:14:59.357Z,11.52
2023-05-20T06:20:01.211Z,11.02
2023-05-20T06:25:03.326Z,11.52
2023-05-20T06:30:05.971Z,12.45
2023-05-20T06:35:08.486Z,12.15
2023-05-20T06:40:10.901Z,11.80
2023-05-20T06:45:13.865Z,11.77
2023-05-20T06:50:15.601Z,11.65
2023-05-20T06:55:17.472Z,11.82
2023-05-20T07:00:19.398Z,12.27
2023-05-20T07:05:21.235Z,13.13
2023-05-20T07:10:22.918Z,12.65
2023-05-20T07:15:24.654Z,13.65
2023-05-20T07:20:26.463Z,13.48
2023-05-20T07:25:28.277Z,13.38
2023-05-20T07:30:32.635Z,12.88
2023-05-20T07:35:34.709Z,13.93
2023-05-20T07:40:36.919Z,14.48
2023-05-20T07:45:38.809Z,14.15
2023-05-20T07:50:40.857Z,13.38
2023-05-20T07:55:42.629Z,14.07
2023-05-20T08:00:44.866Z,13.63
2023-05-20T08:05:46.612Z,14.23
2023-05-20T08:10:48.368Z,13.30
2023-05-20T08:15:50.185Z,13.18
2023-05-20T08:20:51.890Z,13.38
2023-05-20T08:25:53.731Z,13.05
2023-05-20T08:30:55.831Z,13.18
2023-05-20T08:35:57.621Z,11.88
2023-05-20T08:41:00.039Z,13.40
2023-05-20T08:46:06.473Z,13.25
2023-05-20T08:51:11.175Z,13.48
2023-05-20T08:56:13.611Z,12.75
2023-05-20T09:01:15.685Z,12.25
2023-05-20T09:06:20.316Z,12.73
2023-05-20T09:11:23.084Z,14.52
2023-05-20T09:16:26.045Z,14.32
2023-05-20T09:21:28.784Z,14.68
2023-05-20T09:26:30.602Z,14.15
2023-05-20T09:31:36.487Z,14.40
2023-05-20T09:36:40.124Z,14.13
2023-05-20T09:42:04.022Z,15.90
2023-05-20T09:47:08.640Z,15.68
2023-05-20T09:52:12.204Z,14.85
2023-05-20T09:57:14.122Z,14.52
2023-05-20T10:02:15.977Z,14.52
2023-05-20T10:07:42.071Z,14.55
2023-05-20T10:13:02.938Z,13.50
2023-05-20T10:18:16.347Z,14.40
2023-05-20T10:23:29.625Z,14.70
2023-05-20T10:28:34.432Z,13.98
2023-05-20T10:33:45.180Z,13.50
2023-05-20T10:38:56.077Z,13.52
2023-05-20T10:44:05.378Z,13.68
2023-05-20T10:49:19.046Z,15.43
2023-05-20T10:54:21.853Z,14.50
2023-05-20T10:59:23.928Z,13.90
2023-05-20T11:04:26.587Z,13.02
2023-05-20T11:09:28.676Z,13.82
2023-05-20T11:14:30.988Z,12.55
2023-05-20T11:19:32.838Z,13.80
2023-05-20T11:24:34.621Z,12.65
2023-05-20T11:29:37.489Z,12.40
2023-05-20T11:34:39.684Z,12.52
2023-05-20T11:39:41.475Z,12.02
2023-05-20T11:44:46.483Z,12.40
2023-05-20T11:49:49.519Z,11.50
2023-05-20T11:54:54.576Z,13.00
2023-05-20T11:59:56.433Z,12.93
2023-05-20T12:04:58.313Z,12.20
2023-05-20T12:10:00.233Z,12.02
2023-05-20T12:15:05.262Z,13.02
2023-05-20T12:20:07.877Z,12.15
2023-05-20T12:25:15.592Z,11.82
2023-05-20T12:30:19.426Z,11.45
2023-05-20T12:35:38.620Z,12.05
2023-05-20T12:40:40.475Z,12.20
2023-05-20T12:45:42.238Z,13.07
2023-05-20T12:50:44.221Z,12.32
2023-05-20T12:55:46.189Z,12.60
2023-05-20T13:00:48.033Z,12.90
2023-05-20T13:05:49.832Z,13.25
2023-05-20T13:10:51.552Z,13.65
2023-05-20T13:15:53.470Z,13.85
2023-05-20T13:20:55.265Z,13.13
2023-05-20T13:25:56.992Z,13.70
2023-05-20T13:30:58.763Z,14.30
2023-05-20T13:36:00.646Z,13.57
2023-05-20T13:41:02.405Z,13.80
2023-05-20T13:46:04.324Z,13.23
2023-05-20T13:51:06.179Z,13.25
2023-05-20T13:56:11.081Z,12.85
2023-05-20T14:01:13.714Z,13.35
2023-05-20T14:06:18.654Z,12.35
2023-05-20T14:11:21.507Z,12.80
2023-05-20T14:16:23.459Z,11.93
2023-05-20T14:21:25.329Z,11.50
2023-05-20T14:26:27.081Z,11.77
2023-05-20T14:31:28.864Z,11.52
2023-05-20T14:36:30.838Z,11.85
2023-05-20T14:41:32.564Z,10.93
2023-05-20T14:46:34.573Z,10.50
2023-05-20T14:51:36.350Z,10.07
2023-05-20T14:56:38.290Z,9.57
2023-05-20T15:01:40.052Z,10.05
2023-05-20T15:06:41.927Z,9.85
2023-05-20T15:11:43.858Z,9.15
2023-05-20T15:16:45.919Z,9.52
2023-05-20T15:21:49.544Z,9.98
2023-05-20T15:26:52.079Z,9.25
2023-05-20T15:31:53.795Z,8.85
2023-05-20T15:36:55.533Z,9.45
2023-05-20T15:41:59.442Z,9.23
2023-05-20T15:47:01.326Z,9.35
2023-05-20T15:52:04.456Z,9.65
2023-05-20T15:57:06.352Z,9.45
2023-05-20T16:02:08.253Z,10.45
2023-05-20T16:07:10.044Z,9.85
2023-05-20T16:12:12.301Z,10.48
2023-05-20T16:17:14.393Z,9.90
2023-05-20T16:22:17.856Z,10.73
2023-05-20T16:27:19.743Z,9.95
2023-05-20T16:32:21.905Z,10.40
2023-05-20T16:37:23.640Z,11.23
2023-05-20T16:42:25.432Z,11.23
2023-05-20T16:47:27.261Z,11.77
2023-05-20T16:52:29.132Z,11.68
2023-05-20T16:57:31.428Z,11.65
2023-05-20T17:02:33.300Z,10.65
2023-05-20T17:07:35.943Z,11.77
2023-05-20T17:12:37.679Z,11.85
2023-05-20T17:17:39.430Z,12.25
2023-05-20T17:22:41.241Z,12.18
2023-05-20T17:27:42.962Z,11.45
2023-05-20T17:32:44.835Z,11.30
2023-05-20T17:37:47.100Z,13.05
2023-05-20T17:42:48.877Z,12.90
2023-05-20T17:47:50.672Z,13.43
2023-05-20T17:52:52.438Z,13.57
2023-05-20T17:57:54.172Z,13.70
2023-05-20T18:02:58.214Z,14.77
2023-05-20T18:08:00.616Z,14.15
2023-05-20T18:13:02.598Z,14.35
2023-05-20T18:18:05.454Z,15.00
2023-05-20T18:23:07.255Z,15.35
2023-05-20T18:28:09.676Z,16.35
2023-05-20T18:33:11.716Z,15.52
2023-05-20T18:38:13.468Z,14.85
2023-05-20T18:43:15.281Z,15.70
2023-05-20T18:48:25.560Z,15.70
2023-05-20T18:53:28.668Z,15.35
2023-05-20T18:58:30.563Z,15.27
2023-05-20T19:03:32.395Z,16.20
2023-05-20T19:08:34.169Z,15.82
2023-05-20T19:13:35.972Z,15.00
2023-05-20T19:18:37.734Z,14.85
2023-05-20T19:23:39.485Z,14.60
2023-05-20T19:28:41.583Z,16.00
2023-05-20T19:33:43.357Z,15.23
2023-05-20T19:38:45.333Z,15.10
2023-05-20T19:43:47.049Z,15.80
2023-05-20T19:48:48.786Z,15.52
2023-05-20T19:53:50.540Z,16.73
2023-05-20T19:58:52.295Z,16.42
2023-05-20T20:03:54.004Z,16.20
2023-05-20T20:08:55.783Z,17.20
2023-05-20T20:13:58.829Z,17.40
2023-05-20T20:19:01.269Z,17.38
2023-05-20T20:24:03.147Z,16.23
2023-05-20T20:29:04.970Z,17.15
2023-05-20T20:34:06.730Z,17.73
2023-05-20T20:39:09.077Z,16.50
2023-05-20T20:44:16.074Z,17.20
2023-05-20T20:49:22.282Z,17.98
2023-05-20T20:54:24.241Z,17.90
2023-05-20T20:59:30.370Z,17.77
2023-05-20T21:04:32.983Z,18.33
2023-05-20T21:09:34.888Z,18.05
2023-05-20T21:14:36.747Z,18.70
2023-05-20T21:19:38.749Z,19.00
2023-05-20T21:24:40.713Z,19.55
2023-05-20T21:29:42.618Z,20.50
2023-05-20T21:34:44.469Z,19.30
2023-05-20T21:39:46.315Z,19.73
2023-05-20T21:44:48.182Z,19.27
2023-05-20T21:49:49.966Z,20.27
2023-05-20T21:54:54.638Z,20.23
2023-05-20T21:59:56.603Z,20.45
2023-05-20T22:05:00.472Z,19.40
2023-05-20T22:10:02.375Z,18.83
2023-05-20T22:15:05.717Z,18.98
2023-05-20T22:20:08.656Z,18.48
2023-05-20T22:25:11.022Z,18.10
2023-05-20T22:30:13.252Z,17.33
2023-05-20T22:35:15.349Z,17.38
2023-05-20T22:40:17.486Z,17.25
2023-05-20T22:45:19.373Z,17.00
2023-05-20T22:50:21.219Z,17.35
2023-05-20T22:55:23.875Z,17.42
2023-05-20T23:00:25.781Z,17.48
2023-05-20T23:05:30.017Z,18.08
2023-05-20T23:10:31.880Z,17.55
2023-05-20T23:15:33.760Z,17.35
2023-05-20T23:20:35.641Z,16.83
2023-05-20T23:25:37.662Z,16.90
2023-05-20T23:30:39.636Z,16.58
2023-05-20T23:35:44.009Z,17.42
2023-05-20T23:40:45.824Z,17.23
2023-05-20T23:45:47.610Z,17.95
2023-05-20T23:50:49.394Z,17.58
2023-05-20T23:55:51.287Z,17.95
